Terminal Aerodrome Forecast
Issued by NWS

Home | Current Version | Previous Version | Text Only | Print | Product List | Glossary On
Versions: 1 2 3 4 5 6 7 8 9 10 11 12 13 14
000
FTUS42 TJSJ 272324
TAFJMZ
TAF
TJMZ 272324Z 2800/2824 07005KT P6SM FEW025 SCT060 BKN120
     FM280300 00000KT P6SM FEW060 FEW120
     FM281500 08006KT P6SM FEW025 FEW050
     FM281730 27010KT P6SM VCTS SCT025CB BKN050
      AMD NOT SKED=

USA.gov is the U.S. government's official web portal to all federal, state and local government web resources and services.